createdAt,value
2024-01-16T00:00:07.841Z,0.80
2024-01-16T00:01:10.260Z,0.38
2024-01-16T00:02:12.613Z,0.43
2024-01-16T00:03:14.827Z,0.68
2024-01-16T00:04:17.087Z,0.40
2024-01-16T00:05:19.366Z,0.80
2024-01-16T00:06:21.567Z,0.98
2024-01-16T00:07:23.811Z,0.55
2024-01-16T00:08:26.032Z,0.40
2024-01-16T00:09:28.333Z,0.43
2024-01-16T00:10:30.588Z,0.60
2024-01-16T00:11:32.784Z,0.52
2024-01-16T00:12:35.128Z,0.38
2024-01-16T00:13:37.341Z,0.30
2024-01-16T00:14:39.781Z,0.32
2024-01-16T00:15:42.881Z,0.30
2024-01-16T00:16:46.339Z,0.65
2024-01-16T00:17:49.093Z,0.40
2024-01-16T00:18:51.468Z,0.60
2024-01-16T00:19:53.727Z,0.47
2024-01-16T00:20:55.895Z,0.93
2024-01-16T00:21:58.134Z,0.20
2024-01-16T00:23:00.836Z,0.30
2024-01-16T00:24:03.032Z,0.55
2024-01-16T00:25:05.840Z,0.20
2024-01-16T00:26:08.029Z,0.10
2024-01-16T00:27:11.071Z,0.25
2024-01-16T00:28:13.691Z,0.20
2024-01-16T00:29:15.924Z,0.20
2024-01-16T00:30:18.273Z,0.50
2024-01-16T00:31:21.080Z,0.28
2024-01-16T00:32:23.498Z,0.30
2024-01-16T00:33:25.918Z,0.38
2024-01-16T00:34:28.200Z,0.32
2024-01-16T00:35:30.459Z,0.50
2024-01-16T00:36:32.725Z,0.08
2024-01-16T00:37:35.122Z,0.17
2024-01-16T00:38:37.337Z,0.20
2024-01-16T00:39:39.598Z,0.20
2024-01-16T00:40:41.815Z,0.15
2024-01-16T00:41:44.140Z,0.20
2024-01-16T00:42:46.401Z,0.10
2024-01-16T00:43:48.766Z,0.20
2024-01-16T00:44:51.056Z,0.20
2024-01-16T00:45:53.372Z,0.20
2024-01-16T00:46:55.687Z,0.20
2024-01-16T00:47:58.015Z,0.10
2024-01-16T00:49:00.616Z,0.17
2024-01-16T00:50:03.495Z,0.40
2024-01-16T00:51:05.992Z,0.22
2024-01-16T00:52:08.291Z,0.08
2024-01-16T00:53:10.533Z,0.20
2024-01-16T00:54:13.037Z,0.17
2024-01-16T00:55:15.276Z,0.68
2024-01-16T00:56:17.460Z,0.15
2024-01-16T00:57:20.626Z,0.50
2024-01-16T00:58:23.465Z,0.50
2024-01-16T00:59:25.736Z,0.10
2024-01-16T01:00:28.100Z,0.30
2024-01-16T01:01:30.440Z,0.22
2024-01-16T01:02:32.649Z,0.20
2024-01-16T01:03:34.994Z,0.30
2024-01-16T01:04:37.337Z,0.20
2024-01-16T01:05:39.939Z,0.25
2024-01-16T01:06:42.410Z,0.93
2024-01-16T01:07:44.606Z,0.40
2024-01-16T01:08:46.866Z,0.40
2024-01-16T01:09:49.054Z,0.63
2024-01-16T01:10:51.319Z,0.52
2024-01-16T01:11:53.624Z,0.50
2024-01-16T01:12:56.008Z,0.80
2024-01-16T01:13:58.310Z,0.60
2024-01-16T01:15:00.654Z,0.40
2024-01-16T01:16:02.932Z,0.43
2024-01-16T01:17:05.336Z,0.57
2024-01-16T01:18:08.060Z,0.45
2024-01-16T01:19:10.666Z,0.75
2024-01-16T01:20:13.744Z,0.30
2024-01-16T01:21:16.083Z,0.60
2024-01-16T01:22:18.363Z,0.30
2024-01-16T01:23:20.833Z,0.60
2024-01-16T01:24:23.084Z,0.93
2024-01-16T01:25:27.196Z,0.70
2024-01-16T01:26:29.458Z,0.63
2024-01-16T01:27:31.657Z,0.57
2024-01-16T01:28:33.925Z,0.75
2024-01-16T01:29:36.150Z,0.30
2024-01-16T01:30:38.833Z,0.57
2024-01-16T01:31:41.230Z,0.75
2024-01-16T01:32:45.261Z,0.82
2024-01-16T01:33:48.707Z,0.77
2024-01-16T01:34:51.076Z,0.43
2024-01-16T01:35:53.291Z,0.20
2024-01-16T01:36:58.606Z,0.30
2024-01-16T01:38:00.808Z,0.70
2024-01-16T01:39:04.183Z,0.50
2024-01-16T01:40:07.017Z,0.30
2024-01-16T01:41:09.529Z,0.50
2024-01-16T01:42:11.914Z,0.68
2024-01-16T01:43:22.343Z,1.25
2024-01-16T01:44:26.050Z,0.82
2024-01-16T01:45:28.291Z,0.80
2024-01-16T01:46:31.385Z,0.40
2024-01-16T01:47:34.101Z,1.00
2024-01-16T01:48:38.569Z,0.70
2024-01-16T01:49:41.698Z,0.68
2024-01-16T01:50:43.985Z,0.95
2024-01-16T01:51:46.588Z,0.47
2024-01-16T01:52:48.890Z,0.73
2024-01-16T01:53:52.635Z,0.50
2024-01-16T01:54:55.063Z,0.70
2024-01-16T01:55:57.883Z,0.50
2024-01-16T01:57:00.358Z,1.25
2024-01-16T01:58:05.301Z,0.90
2024-01-16T01:59:08.112Z,0.73
2024-01-16T02:00:11.183Z,0.50
2024-01-16T02:01:20.259Z,0.60
2024-01-16T02:02:22.905Z,0.40
2024-01-16T02:03:28.635Z,0.70
2024-01-16T02:04:32.312Z,1.23
2024-01-16T02:05:34.746Z,0.63
2024-01-16T02:06:37.112Z,0.70
2024-01-16T02:07:39.708Z,0.40
2024-01-16T02:08:42.238Z,0.50
2024-01-16T02:09:45.327Z,0.80
2024-01-16T02:10:50.276Z,0.57
2024-01-16T02:11:52.659Z,0.70
2024-01-16T02:12:54.927Z,0.93
2024-01-16T02:13:57.100Z,0.77
2024-01-16T02:14:59.390Z,0.63
2024-01-16T02:16:02.143Z,0.55
2024-01-16T02:17:04.669Z,0.82
2024-01-16T02:18:07.248Z,0.90
2024-01-16T02:19:09.895Z,0.75
2024-01-16T02:20:12.307Z,0.73
2024-01-16T02:21:20.047Z,0.90
2024-01-16T02:22:26.437Z,0.50
2024-01-16T02:23:29.171Z,1.17
2024-01-16T02:24:31.539Z,0.82
2024-01-16T02:25:33.858Z,0.93
2024-01-16T02:26:36.388Z,1.55
2024-01-16T02:27:38.702Z,0.65
2024-01-16T02:28:40.886Z,1.02
2024-01-16T02:29:46.434Z,0.50
2024-01-16T02:30:48.925Z,0.80
2024-01-16T02:31:51.311Z,0.85
2024-01-16T02:32:53.873Z,0.47
2024-01-16T02:33:56.311Z,0.80
2024-01-16T02:34:58.827Z,0.52
2024-01-16T02:36:01.026Z,0.60
2024-01-16T02:37:03.215Z,1.60
2024-01-16T02:38:05.472Z,0.70
2024-01-16T02:39:07.860Z,1.23
2024-01-16T02:40:10.639Z,0.55
2024-01-16T02:41:17.072Z,0.65
2024-01-16T02:42:19.372Z,0.40
2024-01-16T02:43:21.731Z,0.50
2024-01-16T02:44:23.998Z,1.13
2024-01-16T02:45:26.249Z,0.88
2024-01-16T02:46:28.506Z,0.77
2024-01-16T02:47:30.886Z,0.77
2024-01-16T02:48:33.261Z,0.40
2024-01-16T02:49:38.026Z,0.68
2024-01-16T02:50:40.260Z,0.50
2024-01-16T02:51:42.478Z,0.73
2024-01-16T02:52:44.685Z,0.57
2024-01-16T02:53:46.921Z,0.50
2024-01-16T02:54:49.258Z,0.38
2024-01-16T02:55:52.968Z,0.95
2024-01-16T02:56:55.183Z,0.90
2024-01-16T02:57:57.437Z,0.52
2024-01-16T02:58:59.625Z,0.70
2024-01-16T03:00:01.997Z,0.85
2024-01-16T03:01:04.279Z,0.63
2024-01-16T03:02:06.496Z,0.57
2024-01-16T03:03:09.965Z,0.73
2024-01-16T03:04:12.637Z,0.68
2024-01-16T03:05:15.093Z,0.50
2024-01-16T03:06:27.036Z,0.82
2024-01-16T03:07:29.314Z,0.40
2024-01-16T03:08:31.578Z,1.08
2024-01-16T03:09:33.829Z,0.55
2024-01-16T03:10:36.018Z,0.82
2024-01-16T03:11:38.631Z,0.50
2024-01-16T03:12:40.873Z,0.45
2024-01-16T03:13:43.169Z,0.50
2024-01-16T03:14:46.101Z,0.25
2024-01-16T03:15:48.373Z,0.98
2024-01-16T03:16:50.730Z,0.30
2024-01-16T03:17:53.083Z,0.60
2024-01-16T03:18:55.614Z,0.32
2024-01-16T03:19:57.919Z,0.63
2024-01-16T03:21:00.438Z,0.55
2024-01-16T03:22:02.629Z,0.60
2024-01-16T03:23:05.403Z,0.82
2024-01-16T03:24:08.202Z,0.90
2024-01-16T03:25:10.597Z,0.60
2024-01-16T03:26:16.037Z,1.00
2024-01-16T03:27:18.572Z,0.70
2024-01-16T03:28:21.794Z,0.40
2024-01-16T03:29:24.144Z,0.63
2024-01-16T03:30:26.649Z,0.50
2024-01-16T03:31:29.030Z,1.33
2024-01-16T03:32:31.379Z,1.27
2024-01-16T03:33:35.583Z,0.40
2024-01-16T03:34:37.885Z,0.73
2024-01-16T03:35:40.120Z,1.02
2024-01-16T03:36:42.309Z,0.60
2024-01-16T03:37:44.488Z,0.85
2024-01-16T03:38:46.823Z,0.73
2024-01-16T03:39:49.136Z,0.47
2024-01-16T03:40:52.643Z,0.47
2024-01-16T03:41:54.917Z,0.43
2024-01-16T03:42:57.112Z,0.40
2024-01-16T03:43:59.348Z,0.28
2024-01-16T03:45:01.583Z,0.80
2024-01-16T03:46:04.357Z,0.85
2024-01-16T03:47:07.032Z,0.65
2024-01-16T03:48:09.543Z,0.50
2024-01-16T03:49:11.922Z,0.60
2024-01-16T03:50:14.310Z,0.45
2024-01-16T03:51:18.938Z,0.70
2024-01-16T03:52:21.193Z,1.08
2024-01-16T03:53:23.989Z,1.25
2024-01-16T03:54:26.748Z,0.47
2024-01-16T03:55:28.968Z,0.68
2024-01-16T03:56:31.171Z,0.68
2024-01-16T03:57:33.358Z,0.68
2024-01-16T03:58:35.572Z,0.63
2024-01-16T03:59:39.457Z,0.35
2024-01-16T04:00:41.758Z,0.50
2024-01-16T04:01:45.247Z,0.40
2024-01-16T04:02:47.588Z,0.70
2024-01-16T04:03:50.601Z,0.98
2024-01-16T04:04:52.988Z,0.50
2024-01-16T04:05:55.313Z,0.73
2024-01-16T04:06:57.529Z,0.50
2024-01-16T04:07:59.764Z,0.47
2024-01-16T04:09:02.356Z,0.52
2024-01-16T04:10:06.416Z,0.40
2024-01-16T04:11:15.810Z,0.28
2024-01-16T04:12:18.019Z,0.75
2024-01-16T04:13:20.306Z,0.98
2024-01-16T04:14:22.749Z,0.30
2024-01-16T04:15:25.419Z,0.50
2024-01-16T04:16:27.985Z,0.40
2024-01-16T04:17:30.258Z,0.47
2024-01-16T04:18:38.035Z,0.63
2024-01-16T04:19:40.530Z,0.65
2024-01-16T04:20:43.029Z,1.10
2024-01-16T04:21:45.245Z,0.60
2024-01-16T04:22:47.811Z,0.73
2024-01-16T04:23:50.167Z,0.60
2024-01-16T04:24:52.534Z,1.67
2024-01-16T04:25:54.759Z,0.40
2024-01-16T04:26:57.152Z,0.85
2024-01-16T04:28:02.357Z,0.63
2024-01-16T04:29:06.209Z,1.20
2024-01-16T04:30:09.303Z,0.50
2024-01-16T04:31:13.154Z,0.82
2024-01-16T04:32:15.547Z,0.93
2024-01-16T04:33:18.088Z,0.98
2024-01-16T04:34:20.496Z,0.63
2024-01-16T04:35:23.174Z,0.68
2024-01-16T04:36:25.505Z,0.60
2024-01-16T04:37:27.708Z,0.88
2024-01-16T04:38:29.986Z,0.47
2024-01-16T04:39:32.585Z,0.40
2024-01-16T04:40:35.046Z,0.57
2024-01-16T04:41:37.305Z,0.70
2024-01-16T04:42:39.729Z,1.00
2024-01-16T04:43:41.943Z,0.73
2024-01-16T04:44:45.056Z,0.38
2024-01-16T04:45:47.437Z,0.80
2024-01-16T04:46:49.678Z,0.45
2024-01-16T04:47:52.227Z,0.40
2024-01-16T04:48:54.611Z,0.70
2024-01-16T04:49:56.820Z,0.52
2024-01-16T04:50:59.869Z,1.15
2024-01-16T04:52:02.070Z,0.95
2024-01-16T04:53:05.026Z,0.60
2024-01-16T04:54:08.532Z,0.93
2024-01-16T04:55:10.728Z,0.70
2024-01-16T04:56:13.132Z,0.45
2024-01-16T04:57:15.372Z,0.50
2024-01-16T04:58:17.588Z,0.35
2024-01-16T04:59:19.791Z,0.45
2024-01-16T05:00:22.464Z,0.32
2024-01-16T05:01:24.757Z,0.32
2024-01-16T05:02:27.079Z,0.50
2024-01-16T05:03:29.350Z,0.52
2024-01-16T05:04:31.583Z,1.30
2024-01-16T05:05:34.110Z,0.30
2024-01-16T05:06:36.627Z,0.75
2024-01-16T05:07:38.948Z,0.77
2024-01-16T05:08:41.403Z,0.90
2024-01-16T05:09:45.217Z,0.95
2024-01-16T05:10:47.431Z,0.90
2024-01-16T05:11:50.425Z,0.60
2024-01-16T05:12:52.680Z,0.50
2024-01-16T05:13:58.930Z,0.82
2024-01-16T05:15:01.161Z,0.35
2024-01-16T05:16:07.079Z,0.65
2024-01-16T05:17:09.638Z,0.43
2024-01-16T05:18:12.075Z,0.65
2024-01-16T05:19:14.408Z,0.55
2024-01-16T05:20:16.813Z,1.02
2024-01-16T05:21:19.165Z,0.80
2024-01-16T05:22:21.367Z,1.23
2024-01-16T05:23:23.661Z,0.47
2024-01-16T05:24:25.877Z,0.60
2024-01-16T05:25:28.088Z,1.02
2024-01-16T05:26:30.489Z,1.30
2024-01-16T05:27:32.624Z,1.08
2024-01-16T05:28:34.853Z,0.95
2024-01-16T05:29:44.044Z,1.10
2024-01-16T05:30:46.926Z,0.60
2024-01-16T05:31:49.423Z,0.68
2024-01-16T05:32:53.291Z,0.60
2024-01-16T05:33:55.678Z,0.77
2024-01-16T05:34:58.355Z,0.60
2024-01-16T05:36:00.740Z,0.65
2024-01-16T05:37:03.105Z,0.40
2024-01-16T05:38:05.391Z,0.95
2024-01-16T05:39:08.100Z,0.75
2024-01-16T05:40:10.943Z,0.60
2024-01-16T05:41:14.205Z,0.70
2024-01-16T05:42:16.882Z,0.60
2024-01-16T05:43:19.076Z,0.70
2024-01-16T05:44:21.337Z,0.98
2024-01-16T05:45:23.549Z,0.50
2024-01-16T05:46:26.322Z,0.80
2024-01-16T05:47:29.200Z,0.60
2024-01-16T05:48:31.701Z,1.20
2024-01-16T05:49:34.127Z,0.90
2024-01-16T05:50:37.842Z,0.77
2024-01-16T05:51:40.106Z,0.57
2024-01-16T05:52:44.897Z,1.25
2024-01-16T05:53:48.567Z,1.58
2024-01-16T05:54:50.934Z,0.40
2024-01-16T05:55:54.882Z,1.48
2024-01-16T05:56:57.165Z,0.57
2024-01-16T05:58:02.895Z,0.65
2024-01-16T05:59:05.777Z,0.60
2024-01-16T06:00:08.568Z,0.80
2024-01-16T06:01:11.013Z,0.68
2024-01-16T06:02:13.415Z,0.10
2024-01-16T06:03:15.558Z,1.17
2024-01-16T06:04:17.853Z,0.60
2024-01-16T06:05:20.104Z,1.27
2024-01-16T06:06:22.306Z,0.45
2024-01-16T06:07:24.648Z,0.52
2024-01-16T06:08:26.983Z,1.77
2024-01-16T06:09:29.171Z,0.43
2024-01-16T06:10:31.381Z,1.00
2024-01-16T06:11:34.301Z,0.60
2024-01-16T06:12:36.585Z,0.75
2024-01-16T06:13:38.875Z,0.57
2024-01-16T06:14:41.104Z,1.02
2024-01-16T06:15:43.360Z,0.70
2024-01-16T06:16:45.534Z,1.10
2024-01-16T06:17:47.922Z,0.57
2024-01-16T06:18:50.223Z,0.60
2024-01-16T06:19:52.875Z,0.60
2024-01-16T06:20:55.240Z,0.88
2024-01-16T06:21:57.952Z,0.75
2024-01-16T06:23:00.186Z,0.40
2024-01-16T06:24:02.454Z,0.70
2024-01-16T06:25:05.062Z,1.00
2024-01-16T06:26:09.170Z,0.52
2024-01-16T06:27:11.414Z,0.38
2024-01-16T06:28:13.598Z,0.65
2024-01-16T06:29:24.461Z,0.55
2024-01-16T06:30:33.741Z,0.80
2024-01-16T06:31:36.162Z,0.68
2024-01-16T06:32:38.640Z,0.88
2024-01-16T06:33:41.211Z,0.60
2024-01-16T06:34:44.059Z,0.47
2024-01-16T06:35:46.341Z,0.75
2024-01-16T06:36:48.554Z,0.80
2024-01-16T06:37:50.757Z,1.05
2024-01-16T06:38:53.117Z,0.80
2024-01-16T06:39:55.369Z,0.77
2024-01-16T06:40:58.338Z,0.85
2024-01-16T06:42:00.685Z,1.02
2024-01-16T06:43:02.978Z,0.98
2024-01-16T06:44:05.293Z,0.40
2024-01-16T06:45:08.005Z,0.57
2024-01-16T06:46:10.815Z,0.80
2024-01-16T06:47:13.173Z,0.98
2024-01-16T06:48:15.603Z,0.88
2024-01-16T06:49:17.943Z,0.90
2024-01-16T06:50:20.792Z,0.60
2024-01-16T06:51:23.014Z,0.75
2024-01-16T06:52:25.718Z,0.98
2024-01-16T06:53:27.932Z,0.77
2024-01-16T06:54:30.182Z,1.05
2024-01-16T06:55:32.351Z,0.80
2024-01-16T06:56:34.580Z,0.52
2024-01-16T06:57:36.768Z,0.55
2024-01-16T06:58:39.005Z,0.82
2024-01-16T06:59:41.220Z,0.98
2024-01-16T07:00:44.208Z,0.63
2024-01-16T07:01:46.742Z,0.50
2024-01-16T07:02:49.146Z,1.40
2024-01-16T07:03:51.440Z,0.90
2024-01-16T07:04:53.838Z,0.75
2024-01-16T07:05:56.168Z,0.95
2024-01-16T07:06:58.393Z,0.85
2024-01-16T07:08:00.695Z,1.10
2024-01-16T07:09:02.907Z,0.55
2024-01-16T07:10:09.137Z,1.20
2024-01-16T07:11:14.393Z,1.05
2024-01-16T07:12:16.908Z,1.10
2024-01-16T07:13:19.145Z,0.85
2024-01-16T07:14:21.418Z,0.98
2024-01-16T07:15:23.647Z,0.63
2024-01-16T07:16:25.820Z,0.95
2024-01-16T07:17:28.125Z,0.65
2024-01-16T07:18:30.557Z,0.95
2024-01-16T07:19:32.878Z,1.33
2024-01-16T07:20:35.174Z,0.73
2024-01-16T07:21:37.344Z,1.10
2024-01-16T07:22:40.683Z,0.55
2024-01-16T07:23:42.904Z,0.73
2024-01-16T07:24:45.067Z,0.77
2024-01-16T07:25:47.273Z,1.45
2024-01-16T07:26:49.679Z,0.70
2024-01-16T07:27:51.876Z,1.05
2024-01-16T07:28:54.179Z,0.68
2024-01-16T07:29:58.012Z,1.05
2024-01-16T07:31:00.391Z,1.10
2024-01-16T07:32:02.744Z,0.52
2024-01-16T07:33:05.456Z,0.70
2024-01-16T07:34:07.956Z,1.27
2024-01-16T07:35:10.353Z,0.70
2024-01-16T07:36:13.130Z,0.90
2024-01-16T07:37:16.867Z,0.88
2024-01-16T07:38:19.135Z,0.75
2024-01-16T07:39:23.821Z,0.90
2024-01-16T07:40:26.946Z,0.68
2024-01-16T07:41:29.219Z,0.85
2024-01-16T07:42:35.335Z,0.93
2024-01-16T07:43:37.761Z,1.00
2024-01-16T07:44:40.221Z,2.08
2024-01-16T07:45:42.487Z,0.80
2024-01-16T07:46:44.686Z,1.00
2024-01-16T07:47:47.030Z,0.68
2024-01-16T07:48:50.141Z,2.75
2024-01-16T07:49:52.326Z,0.80
2024-01-16T07:50:54.586Z,0.52
2024-01-16T07:51:56.942Z,0.90
2024-01-16T07:52:59.145Z,0.60
2024-01-16T07:54:09.110Z,0.90
2024-01-16T07:55:11.516Z,1.77
2024-01-16T07:56:13.740Z,1.15
2024-01-16T07:57:16.039Z,0.95
2024-01-16T07:58:18.200Z,1.30
2024-01-16T07:59:20.395Z,1.40
2024-01-16T08:00:23.127Z,1.00
2024-01-16T08:01:25.309Z,0.85
2024-01-16T08:02:35.335Z,0.80
2024-01-16T08:03:37.710Z,0.95
2024-01-16T08:04:39.936Z,0.85
2024-01-16T08:05:42.352Z,1.23
2024-01-16T08:06:44.890Z,1.05
2024-01-16T08:07:47.269Z,0.95
2024-01-16T08:08:50.352Z,1.10
2024-01-16T08:09:52.713Z,1.10
2024-01-16T08:10:54.930Z,0.70
2024-01-16T08:11:57.196Z,1.00
2024-01-16T08:12:59.458Z,1.20
2024-01-16T08:14:01.645Z,0.70
2024-01-16T08:15:04.852Z,0.90
2024-01-16T08:16:09.411Z,0.65
2024-01-16T08:17:12.738Z,1.80
2024-01-16T08:18:16.937Z,1.13
2024-01-16T08:19:20.003Z,1.13
2024-01-16T08:20:22.312Z,1.10
2024-01-16T08:21:24.510Z,1.25
2024-01-16T08:22:26.691Z,1.10
2024-01-16T08:23:29.004Z,1.05
2024-01-16T08:24:32.097Z,0.80
2024-01-16T08:25:34.241Z,1.27
2024-01-16T08:26:36.431Z,0.85
2024-01-16T08:27:38.727Z,1.13
2024-01-16T08:28:41.208Z,0.80
2024-01-16T08:29:43.735Z,0.90
2024-01-16T08:30:46.005Z,1.00
2024-01-16T08:31:48.360Z,1.30
2024-01-16T08:32:50.628Z,1.20
2024-01-16T08:33:54.512Z,1.17
2024-01-16T08:34:56.928Z,1.10
2024-01-16T08:35:59.330Z,1.10
2024-01-16T08:37:01.598Z,1.33
2024-01-16T08:38:04.127Z,0.80
2024-01-16T08:39:06.968Z,1.25
2024-01-16T08:40:09.549Z,1.95
2024-01-16T08:41:11.791Z,0.80
2024-01-16T08:42:14.038Z,1.00
2024-01-16T08:43:16.261Z,1.60
2024-01-16T08:44:18.507Z,1.10
2024-01-16T08:45:20.736Z,1.45
2024-01-16T08:46:23.832Z,1.05
2024-01-16T08:47:26.122Z,0.93
2024-01-16T08:48:28.529Z,1.63
2024-01-16T08:49:30.870Z,1.20
2024-01-16T08:50:33.636Z,0.70
2024-01-16T08:51:35.905Z,1.05
2024-01-16T08:52:38.062Z,0.88
2024-01-16T08:53:40.370Z,1.00
2024-01-16T08:54:42.619Z,1.00
2024-01-16T08:55:44.808Z,0.88
2024-01-16T08:56:47.321Z,1.00
2024-01-16T08:57:49.605Z,0.90
2024-01-16T08:58:51.784Z,1.10
2024-01-16T08:59:54.148Z,1.08
2024-01-16T09:00:56.390Z,1.23
2024-01-16T09:01:58.565Z,0.73
2024-01-16T09:03:03.170Z,0.77
2024-01-16T09:04:07.048Z,0.85
2024-01-16T09:05:09.348Z,1.10
2024-01-16T09:06:11.995Z,1.00
2024-01-16T09:07:17.018Z,1.17
2024-01-16T09:08:19.319Z,1.33
2024-01-16T09:09:22.242Z,1.15
2024-01-16T09:10:24.429Z,0.85
2024-01-16T09:11:26.617Z,1.20
2024-01-16T09:12:28.808Z,1.33
2024-01-16T09:13:31.045Z,0.98
2024-01-16T09:14:33.364Z,1.15
2024-01-16T09:15:35.818Z,1.00
2024-01-16T09:16:38.127Z,1.10
2024-01-16T09:17:40.457Z,1.33
2024-01-16T09:18:42.767Z,1.67
2024-01-16T09:19:45.015Z,0.77
2024-01-16T09:20:47.859Z,1.17
2024-01-16T09:21:50.157Z,1.00
2024-01-16T09:22:52.302Z,1.20
2024-01-16T09:23:54.592Z,1.27
2024-01-16T09:24:56.859Z,1.05
2024-01-16T09:25:59.041Z,1.25
2024-01-16T09:27:01.282Z,2.83
2024-01-16T09:28:04.045Z,1.25
2024-01-16T09:29:06.246Z,1.17
2024-01-16T09:30:09.255Z,1.13
2024-01-16T09:31:11.478Z,1.23
2024-01-16T09:32:13.857Z,1.25
2024-01-16T09:33:17.929Z,1.40
2024-01-16T09:34:20.219Z,1.50
2024-01-16T09:35:23.374Z,1.63
2024-01-16T09:36:26.002Z,1.35
2024-01-16T09:37:28.205Z,2.00
2024-01-16T09:38:32.187Z,1.27
2024-01-16T09:39:35.846Z,1.63
2024-01-16T09:40:38.162Z,1.55
2024-01-16T09:41:41.174Z,1.73
2024-01-16T09:42:44.087Z,1.50
2024-01-16T09:43:48.324Z,2.15
2024-01-16T09:44:51.474Z,2.10
2024-01-16T09:45:58.141Z,1.52
2024-01-16T09:47:02.742Z,1.80
2024-01-16T09:48:06.403Z,1.80
2024-01-16T09:49:10.203Z,2.83
2024-01-16T09:50:13.166Z,2.20
2024-01-16T09:51:15.730Z,1.65
2024-01-16T09:52:18.007Z,1.95
2024-01-16T09:53:20.372Z,2.38
2024-01-16T09:54:22.682Z,2.05
2024-01-16T09:55:25.229Z,1.50
2024-01-16T09:56:29.259Z,1.75
2024-01-16T09:57:33.605Z,1.45
2024-01-16T09:58:38.373Z,2.25
2024-01-16T09:59:41.075Z,2.05
2024-01-16T10:00:44.910Z,2.22
2024-01-16T10:01:47.902Z,2.60
2024-01-16T10:02:51.262Z,1.80
2024-01-16T10:03:54.116Z,1.80
2024-01-16T10:04:56.389Z,1.95
2024-01-16T10:06:01.032Z,2.08
2024-01-16T10:07:05.231Z,2.67
2024-01-16T10:08:09.036Z,2.00
2024-01-16T10:09:13.471Z,1.27
2024-01-16T10:10:21.723Z,1.70
2024-01-16T10:11:30.344Z,1.60
2024-01-16T10:12:33.501Z,2.45
2024-01-16T10:13:37.706Z,1.40
2024-01-16T10:14:41.686Z,1.27
2024-01-16T10:15:44.023Z,1.88
2024-01-16T10:17:16.951Z,1.60
2024-01-16T10:18:25.726Z,1.92
2024-01-16T10:19:39.199Z,1.80
2024-01-16T10:20:49.438Z,1.83
2024-01-16T10:21:52.906Z,1.83
2024-01-16T10:22:55.209Z,1.73
2024-01-16T10:24:12.172Z,2.58
2024-01-16T10:25:18.219Z,1.55
2024-01-16T10:26:22.300Z,1.77
2024-01-16T10:27:24.481Z,1.90
2024-01-16T10:28:26.702Z,2.08
2024-01-16T10:29:39.562Z,2.00
2024-01-16T10:31:02.918Z,1.40
2024-01-16T10:32:09.855Z,1.70
2024-01-16T10:33:16.561Z,1.52
2024-01-16T10:34:23.702Z,2.20
2024-01-16T10:35:26.280Z,2.00
2024-01-16T10:36:28.599Z,2.03
2024-01-16T10:37:33.215Z,2.58
2024-01-16T10:38:39.105Z,2.22
2024-01-16T10:39:44.050Z,2.83
2024-01-16T10:40:46.607Z,2.10
2024-01-16T10:41:56.761Z,3.17
2024-01-16T10:43:00.183Z,1.73
2024-01-16T10:44:10.077Z,2.55
2024-01-16T10:45:19.697Z,2.03
2024-01-16T10:46:24.676Z,2.13
2024-01-16T10:47:27.013Z,1.63
2024-01-16T10:48:29.443Z,1.75
2024-01-16T10:49:40.769Z,1.60
2024-01-16T10:50:48.069Z,1.88
2024-01-16T10:51:52.849Z,1.92
2024-01-16T10:52:56.000Z,1.80
2024-01-16T10:54:06.715Z,2.38
2024-01-16T10:55:10.693Z,2.58
2024-01-16T10:56:14.123Z,2.75
2024-01-16T10:57:16.425Z,2.75
2024-01-16T10:58:26.480Z,1.80
2024-01-16T11:00:02.024Z,1.83
2024-01-16T11:01:06.522Z,1.55
2024-01-16T11:02:14.064Z,2.13
2024-01-16T11:03:45.745Z,2.53
2024-01-16T11:04:50.508Z,3.03
2024-01-16T11:05:53.936Z,2.00
2024-01-16T11:06:57.295Z,2.15
2024-01-16T11:07:59.942Z,2.28
2024-01-16T11:09:05.299Z,1.80
2024-01-16T11:10:10.481Z,2.30
2024-01-16T11:11:15.102Z,2.42
2024-01-16T11:12:18.662Z,2.58
2024-01-16T11:13:22.510Z,3.33
2024-01-16T11:14:26.655Z,3.03
2024-01-16T11:15:29.954Z,2.53
2024-01-16T11:16:33.564Z,2.38
2024-01-16T11:17:37.013Z,2.25
2024-01-16T11:18:39.819Z,2.88
2024-01-16T11:19:54.411Z,2.35
2024-01-16T11:21:19.568Z,2.38
2024-01-16T11:22:23.518Z,2.72
2024-01-16T11:23:26.280Z,1.88
2024-01-16T11:24:28.464Z,1.90
2024-01-16T11:25:34.446Z,2.08
2024-01-16T11:26:41.416Z,2.47
2024-01-16T11:27:45.055Z,2.20
2024-01-16T11:28:47.287Z,2.38
2024-01-16T11:29:52.475Z,1.70
2024-01-16T11:30:54.889Z,2.47
2024-01-16T11:32:13.283Z,2.40
2024-01-16T11:33:32.620Z,2.05
2024-01-16T11:34:45.061Z,2.20
2024-01-16T11:35:47.488Z,2.80
2024-01-16T11:36:57.205Z,2.30
2024-01-16T11:38:06.185Z,2.42
2024-01-16T11:39:12.444Z,1.85
2024-01-16T11:40:23.482Z,2.60
2024-01-16T11:41:54.107Z,2.45
2024-01-16T11:42:57.285Z,1.90
2024-01-16T11:43:59.716Z,2.42
2024-01-16T11:45:02.656Z,2.90
2024-01-16T11:46:09.146Z,1.80
2024-01-16T11:47:20.654Z,2.03
2024-01-16T11:48:23.388Z,2.20
2024-01-16T11:49:25.796Z,2.00
2024-01-16T11:50:31.569Z,2.15
2024-01-16T11:51:34.215Z,2.40
2024-01-16T11:52:44.345Z,2.35
2024-01-16T11:53:46.586Z,2.25
2024-01-16T11:54:50.772Z,2.60
2024-01-16T11:56:41.404Z,2.45
2024-01-16T11:58:12.291Z,2.10
2024-01-16T11:59:27.283Z,1.85
2024-01-16T12:00:34.117Z,2.33
2024-01-16T12:01:37.148Z,2.78
2024-01-16T12:02:55.036Z,2.47
2024-01-16T12:04:07.053Z,1.67
2024-01-16T12:05:12.242Z,2.17
2024-01-16T12:06:17.648Z,2.33
2024-01-16T12:07:20.009Z,2.67
2024-01-16T12:08:23.325Z,3.15
2024-01-16T12:09:28.157Z,2.42
2024-01-16T12:10:30.481Z,2.50
2024-01-16T12:11:40.896Z,2.40
2024-01-16T12:12:47.225Z,2.45
2024-01-16T12:14:05.082Z,2.85
2024-01-16T12:15:08.347Z,2.40
2024-01-16T12:16:10.661Z,2.55
2024-01-16T12:17:13.620Z,3.47
2024-01-16T12:18:30.945Z,2.42
2024-01-16T12:19:43.933Z,2.58
2024-01-16T12:20:46.881Z,2.50
2024-01-16T12:21:49.472Z,3.00
2024-01-16T12:22:56.666Z,3.15
2024-01-16T12:24:08.688Z,2.92
2024-01-16T12:25:13.956Z,2.85
2024-01-16T12:26:23.958Z,2.70
2024-01-16T12:27:26.542Z,2.42
2024-01-16T12:28:32.921Z,2.25
2024-01-16T12:29:36.880Z,3.17
2024-01-16T12:30:39.382Z,2.78
2024-01-16T12:31:41.785Z,3.47
2024-01-16T12:32:44.871Z,3.20
2024-01-16T12:33:55.336Z,2.78
2024-01-16T12:35:05.403Z,2.83
2024-01-16T12:36:07.989Z,3.42
2024-01-16T12:37:10.285Z,3.67
2024-01-16T12:38:14.289Z,3.45
2024-01-16T12:39:20.238Z,4.68
2024-01-16T12:40:22.496Z,2.70
2024-01-16T12:41:32.512Z,3.15
2024-01-16T12:42:42.209Z,3.33
2024-01-16T12:43:44.538Z,4.05
2024-01-16T12:44:47.832Z,3.83
2024-01-16T12:45:57.244Z,5.20
2024-01-16T12:47:00.049Z,4.03
2024-01-16T12:48:04.839Z,3.83
2024-01-16T12:49:08.645Z,3.10
2024-01-16T12:50:11.327Z,2.50
2024-01-16T12:51:21.150Z,3.58
2024-01-16T12:52:26.676Z,3.33
2024-01-16T12:53:29.798Z,2.75
2024-01-16T12:54:32.036Z,3.28
2024-01-16T12:55:41.703Z,3.75
2024-01-16T12:56:44.688Z,4.15
2024-01-16T12:57:47.210Z,3.20
2024-01-16T12:58:49.532Z,3.55
2024-01-16T12:59:53.047Z,3.40
2024-01-16T13:00:57.142Z,3.58
2024-01-16T13:01:59.484Z,2.40
2024-01-16T13:03:02.577Z,3.00
2024-01-16T13:04:05.178Z,2.83
2024-01-16T13:05:08.879Z,2.97
2024-01-16T13:06:11.838Z,2.90
2024-01-16T13:07:19.191Z,2.92
2024-01-16T13:08:21.638Z,3.25
2024-01-16T13:09:23.883Z,3.35
2024-01-16T13:10:26.083Z,3.45
2024-01-16T13:11:35.723Z,3.35
2024-01-16T13:12:42.046Z,2.92
2024-01-16T13:13:44.403Z,3.30
2024-01-16T13:14:46.676Z,3.40
2024-01-16T13:15:50.825Z,2.90
2024-01-16T13:16:56.800Z,2.45
2024-01-16T13:17:59.466Z,3.00
2024-01-16T13:19:03.163Z,3.28
2024-01-16T13:20:08.968Z,2.92
2024-01-16T13:21:11.302Z,2.75
2024-01-16T13:22:13.487Z,3.00
2024-01-16T13:23:16.220Z,3.60
2024-01-16T13:24:21.542Z,3.05
2024-01-16T13:25:23.775Z,3.33
2024-01-16T13:26:26.135Z,3.42
2024-01-16T13:27:30.377Z,2.42
2024-01-16T13:28:32.608Z,2.92
2024-01-16T13:29:39.108Z,3.30
2024-01-16T13:30:47.393Z,3.65
2024-01-16T13:31:55.755Z,3.67
2024-01-16T13:32:58.047Z,2.40
2024-01-16T13:34:00.495Z,2.55
2024-01-16T13:35:08.248Z,2.70
2024-01-16T13:36:10.517Z,2.70
2024-01-16T13:37:20.769Z,2.20
2024-01-16T13:38:23.152Z,4.00
2024-01-16T13:39:26.448Z,3.05
2024-01-16T13:40:28.688Z,2.90
2024-01-16T13:41:30.850Z,2.72
2024-01-16T13:42:33.099Z,2.72
2024-01-16T13:43:35.279Z,2.88
2024-01-16T13:44:37.603Z,2.42
2024-01-16T13:45:40.384Z,3.08
2024-01-16T13:46:53.825Z,2.53
2024-01-16T13:48:04.226Z,2.15
2024-01-16T13:49:07.319Z,2.67
2024-01-16T13:50:10.004Z,2.80
2024-01-16T13:51:12.490Z,2.40
2024-01-16T13:52:14.650Z,2.58
2024-01-16T13:53:16.861Z,3.22
2024-01-16T13:54:19.126Z,2.25
2024-01-16T13:55:21.836Z,3.00
2024-01-16T13:56:39.399Z,2.63
2024-01-16T13:57:46.383Z,2.33
2024-01-16T13:58:48.694Z,2.33
2024-01-16T13:59:52.113Z,2.13
2024-01-16T14:00:54.965Z,2.30
2024-01-16T14:01:57.179Z,2.25
2024-01-16T14:02:59.708Z,2.60
2024-01-16T14:04:02.123Z,2.47
2024-01-16T14:05:06.901Z,2.15
2024-01-16T14:06:09.607Z,3.13
2024-01-16T14:07:14.029Z,2.72
2024-01-16T14:08:16.757Z,4.07